createdAt,value
2022-11-29T00:00:18.101Z,23.08
2022-11-29T00:01:21.792Z,24.17
2022-11-29T00:02:23.442Z,23.80
2022-11-29T00:03:25.421Z,24.80
2022-11-29T00:04:27.646Z,23.25
2022-11-29T00:05:29.373Z,24.23
2022-11-29T00:06:32.055Z,24.23
2022-11-29T00:07:34.580Z,22.73
2022-11-29T00:08:36.313Z,25.02
2022-11-29T00:09:37.956Z,21.33
2022-11-29T00:10:39.514Z,23.60
2022-11-29T00:11:59.920Z,21.65
2022-11-29T00:13:01.487Z,22.25
2022-11-29T00:14:03.157Z,21.95
2022-11-29T00:15:05.071Z,23.40
2022-11-29T00:16:11.940Z,23.75
2022-11-29T00:17:13.607Z,23.20
2022-11-29T00:18:15.209Z,22.75
2022-11-29T00:19:16.823Z,23.85
2022-11-29T00:20:18.476Z,21.80
2022-11-29T00:21:20.030Z,22.25
2022-11-29T00:22:23.747Z,20.02
2022-11-29T00:23:25.342Z,22.02
2022-11-29T00:24:26.927Z,21.50
2022-11-29T00:25:28.484Z,23.58
2022-11-29T00:26:30.032Z,23.83
2022-11-29T00:27:31.785Z,22.17
2022-11-29T00:28:33.662Z,22.23
2022-11-29T00:29:35.896Z,22.13
2022-11-29T00:30:37.464Z,21.98
2022-11-29T00:31:39.275Z,23.90
2022-11-29T00:32:40.825Z,21.92
2022-11-29T00:33:42.384Z,24.73
2022-11-29T00:34:44.239Z,23.73
2022-11-29T00:35:45.910Z,21.90
2022-11-29T00:36:47.835Z,23.95
2022-11-29T00:37:49.398Z,22.42
2022-11-29T00:38:51.003Z,23.08
2022-11-29T00:39:52.544Z,23.02
2022-11-29T00:40:54.078Z,21.52
2022-11-29T00:41:55.818Z,23.10
2022-11-29T00:42:57.436Z,22.70
2022-11-29T00:43:59.285Z,23.17
2022-11-29T00:45:00.831Z,24.27
2022-11-29T00:46:02.532Z,22.10
2022-11-29T00:47:04.142Z,23.30
2022-11-29T00:48:05.880Z,23.58
2022-11-29T00:49:07.485Z,22.05
2022-11-29T00:50:09.308Z,22.80
2022-11-29T00:51:10.888Z,21.87
2022-11-29T00:52:12.423Z,22.42
2022-11-29T00:53:14.028Z,22.08
2022-11-29T00:54:15.805Z,25.42
2022-11-29T00:55:17.423Z,22.80
2022-11-29T00:56:18.985Z,23.90
2022-11-29T00:57:20.526Z,22.45
2022-11-29T00:58:22.419Z,23.13
2022-11-29T00:59:23.974Z,20.73
2022-11-29T01:00:25.526Z,23.17
2022-11-29T01:01:27.115Z,24.95
2022-11-29T01:02:28.801Z,24.98
2022-11-29T01:03:30.507Z,23.77
2022-11-29T01:04:32.049Z,22.38
2022-11-29T01:05:33.644Z,21.55
2022-11-29T01:06:35.186Z,24.92
2022-11-29T01:07:36.778Z,23.90
2022-11-29T01:08:38.467Z,22.50
2022-11-29T01:09:40.049Z,22.38
2022-11-29T01:10:41.909Z,23.90
2022-11-29T01:11:43.479Z,24.05
2022-11-29T01:12:45.109Z,20.90
2022-11-29T01:13:46.673Z,20.75
2022-11-29T01:14:48.343Z,23.88
2022-11-29T01:15:56.211Z,22.63
2022-11-29T01:16:57.839Z,21.33
2022-11-29T01:17:59.494Z,18.90
2022-11-29T01:19:01.057Z,20.65
2022-11-29T01:20:03.435Z,22.35
2022-11-29T01:21:07.294Z,21.60
2022-11-29T01:22:08.884Z,19.95
2022-11-29T01:23:10.485Z,21.13
2022-11-29T01:24:12.085Z,20.07
2022-11-29T01:25:13.809Z,21.73
2022-11-29T01:26:21.313Z,22.25
2022-11-29T01:27:22.877Z,19.83
2022-11-29T01:28:24.694Z,21.10
2022-11-29T01:29:26.242Z,21.77
2022-11-29T01:30:27.844Z,22.80
2022-11-29T01:31:31.473Z,21.88
2022-11-29T01:32:33.005Z,23.30
2022-11-29T01:33:35.036Z,22.02
2022-11-29T01:34:37.245Z,20.75
2022-11-29T01:35:39.108Z,22.55
2022-11-29T01:36:40.655Z,22.98
2022-11-29T01:37:42.293Z,22.88
2022-11-29T01:38:43.891Z,22.10
2022-11-29T01:39:45.435Z,22.13
2022-11-29T01:41:03.286Z,22.73
2022-11-29T01:42:04.993Z,19.70
2022-11-29T01:43:16.147Z,23.05
2022-11-29T01:44:17.868Z,20.42
2022-11-29T01:45:22.449Z,21.48
2022-11-29T01:46:24.727Z,20.15
2022-11-29T01:47:26.312Z,18.75
2022-11-29T01:48:29.977Z,21.48
2022-11-29T01:49:37.584Z,21.43
2022-11-29T01:50:39.531Z,20.50
2022-11-29T01:51:43.089Z,18.40
2022-11-29T01:52:44.629Z,19.23
2022-11-29T01:53:46.276Z,19.67
2022-11-29T01:54:49.569Z,21.52
2022-11-29T01:55:53.360Z,20.23
2022-11-29T01:56:55.133Z,19.90
2022-11-29T01:57:56.671Z,21.00
2022-11-29T01:58:58.254Z,21.40
2022-11-29T02:00:03.516Z,20.52
2022-11-29T02:01:05.146Z,22.20
2022-11-29T02:02:10.224Z,20.83
2022-11-29T02:03:13.218Z,21.25
2022-11-29T02:04:14.820Z,22.55
2022-11-29T02:05:16.872Z,20.90
2022-11-29T02:06:18.441Z,24.83
2022-11-29T02:07:20.012Z,21.48
2022-11-29T02:08:31.973Z,21.20
2022-11-29T02:09:33.621Z,21.85
2022-11-29T02:11:12.149Z,22.05
2022-11-29T02:12:22.599Z,22.05
2022-11-29T02:13:39.218Z,21.13
2022-11-29T02:15:17.202Z,21.70
2022-11-29T02:16:34.667Z,19.93
2022-11-29T02:17:43.496Z,20.92
2022-11-29T02:19:01.949Z,21.15
2022-11-29T02:20:22.864Z,21.17
2022-11-29T02:21:54.869Z,19.92
2022-11-29T02:23:23.658Z,21.98
2022-11-29T02:24:49.251Z,19.23
2022-11-29T02:26:14.893Z,21.35
2022-11-29T02:27:43.631Z,21.30
2022-11-29T02:29:06.442Z,19.58
2022-11-29T02:30:24.469Z,20.35
2022-11-29T02:31:38.144Z,21.55
2022-11-29T02:32:42.654Z,21.65
2022-11-29T02:34:08.748Z,22.17
2022-11-29T02:35:19.338Z,23.45
2022-11-29T02:36:30.379Z,20.83
2022-11-29T02:37:47.967Z,20.38
2022-11-29T02:39:02.239Z,22.67
2022-11-29T02:40:34.999Z,21.58
2022-11-29T02:41:42.429Z,20.02
2022-11-29T02:42:56.464Z,20.83
2022-11-29T02:44:29.431Z,20.13
2022-11-29T02:45:43.086Z,21.63
2022-11-29T02:47:10.570Z,21.27
2022-11-29T02:48:22.489Z,21.45
2022-11-29T02:49:34.321Z,22.95
2022-11-29T02:50:42.637Z,19.77
2022-11-29T02:51:50.558Z,22.38
2022-11-29T02:53:01.203Z,20.42
2022-11-29T02:54:24.068Z,21.02
2022-11-29T02:55:46.676Z,20.03
2022-11-29T02:57:04.724Z,19.13
2022-11-29T02:58:17.068Z,22.40
2022-11-29T02:59:27.467Z,21.48
2022-11-29T03:00:29.202Z,21.60
2022-11-29T03:01:41.887Z,20.00
2022-11-29T03:02:52.127Z,20.40
2022-11-29T03:04:02.750Z,20.05
2022-11-29T03:05:37.453Z,21.73
2022-11-29T03:07:06.470Z,20.05
2022-11-29T03:08:36.180Z,18.92
2022-11-29T03:09:45.166Z,19.50
2022-11-29T03:11:16.817Z,20.67
2022-11-29T03:12:33.921Z,20.35
2022-11-29T03:13:41.260Z,22.15
2022-11-29T03:15:02.758Z,20.92
2022-11-29T03:16:29.999Z,20.00
2022-11-29T03:17:38.737Z,19.80
2022-11-29T03:19:18.223Z,19.92
2022-11-29T03:20:28.814Z,19.08
2022-11-29T03:21:37.444Z,19.80
2022-11-29T03:22:46.392Z,19.38
2022-11-29T03:23:52.923Z,19.08
2022-11-29T03:25:07.348Z,18.85
2022-11-29T03:26:11.229Z,18.88
2022-11-29T03:27:14.541Z,18.42
2022-11-29T03:28:23.722Z,18.75
2022-11-29T03:29:29.633Z,18.63
2022-11-29T03:30:32.705Z,16.77
2022-11-29T03:31:43.803Z,17.98
2022-11-29T03:33:03.130Z,17.40
2022-11-29T03:34:39.221Z,18.30
2022-11-29T03:35:50.672Z,17.05
2022-11-29T03:36:58.890Z,18.42
2022-11-29T03:38:09.461Z,17.67
2022-11-29T03:39:17.642Z,18.45
2022-11-29T03:40:21.594Z,19.13
2022-11-29T03:41:37.023Z,19.20
2022-11-29T03:42:43.552Z,18.38
2022-11-29T03:43:56.047Z,20.33
2022-11-29T03:45:03.684Z,18.67
2022-11-29T03:46:09.096Z,19.00
2022-11-29T03:47:15.262Z,20.45
2022-11-29T03:48:37.842Z,18.63
2022-11-29T03:49:53.706Z,17.57
2022-11-29T03:50:58.070Z,17.00
2022-11-29T03:52:19.627Z,18.55
2022-11-29T03:53:29.340Z,17.88
2022-11-29T03:54:38.329Z,18.95
2022-11-29T03:55:52.553Z,18.13
2022-11-29T03:56:54.640Z,18.15
2022-11-29T03:58:05.745Z,19.37
2022-11-29T03:59:07.230Z,18.38
2022-11-29T04:00:13.152Z,18.92
2022-11-29T04:01:35.957Z,16.83
2022-11-29T04:02:46.793Z,17.13
2022-11-29T04:04:12.468Z,17.80
2022-11-29T04:05:20.106Z,17.67
2022-11-29T04:06:47.019Z,17.50
2022-11-29T04:07:57.471Z,16.47
2022-11-29T04:09:23.964Z,16.63
2022-11-29T04:11:07.952Z,16.95
2022-11-29T04:12:21.760Z,18.55
2022-11-29T04:13:29.314Z,17.40
2022-11-29T04:14:39.780Z,16.98
2022-11-29T04:15:41.296Z,17.33
2022-11-29T04:17:05.162Z,16.63
2022-11-29T04:18:28.974Z,16.43
2022-11-29T04:19:36.395Z,16.02
2022-11-29T04:21:07.050Z,16.52
2022-11-29T04:22:24.137Z,17.10
2022-11-29T04:23:53.009Z,16.63
2022-11-29T04:25:26.947Z,15.80
2022-11-29T04:26:50.977Z,15.15
2022-11-29T04:28:13.686Z,15.75
2022-11-29T04:29:50.680Z,15.43
2022-11-29T04:31:04.114Z,16.48
2022-11-29T04:32:31.566Z,15.00
2022-11-29T04:33:51.129Z,13.55
2022-11-29T04:35:14.062Z,15.52
2022-11-29T04:36:31.487Z,14.77
2022-11-29T04:37:41.954Z,16.15
2022-11-29T04:39:02.344Z,15.23
2022-11-29T04:40:22.896Z,16.08
2022-11-29T04:42:10.652Z,15.98
2022-11-29T04:43:33.807Z,15.95
2022-11-29T04:45:00.925Z,16.98
2022-11-29T04:46:41.495Z,15.43
2022-11-29T04:47:52.191Z,16.73
2022-11-29T04:49:27.712Z,16.03
2022-11-29T04:50:41.368Z,15.88
2022-11-29T04:52:20.639Z,17.50
2022-11-29T04:53:34.111Z,18.00
2022-11-29T04:54:43.404Z,16.23
2022-11-29T04:56:04.296Z,18.05
2022-11-29T04:57:34.392Z,17.92
2022-11-29T04:58:52.123Z,16.07
2022-11-29T05:00:10.110Z,17.20
2022-11-29T05:01:30.353Z,17.20
2022-11-29T05:03:01.463Z,16.20
2022-11-29T05:04:22.130Z,15.55
2022-11-29T05:05:24.556Z,15.95
2022-11-29T05:06:32.740Z,17.05
2022-11-29T05:07:53.058Z,17.55
2022-11-29T05:09:07.237Z,17.13
2022-11-29T05:10:52.815Z,18.17
2022-11-29T05:12:09.360Z,16.75
2022-11-29T05:13:31.483Z,17.88
2022-11-29T05:15:14.842Z,16.27
2022-11-29T05:16:37.448Z,17.38
2022-11-29T05:18:05.616Z,16.85
2022-11-29T05:19:29.844Z,17.67
2022-11-29T05:20:36.696Z,17.27
2022-11-29T05:21:47.380Z,18.45
2022-11-29T05:22:51.778Z,19.90
2022-11-29T05:24:19.423Z,17.10
2022-11-29T05:25:32.628Z,18.02
2022-11-29T05:26:41.690Z,19.52
2022-11-29T05:27:51.500Z,18.60
2022-11-29T05:28:58.859Z,18.35
2022-11-29T05:30:03.141Z,17.30
2022-11-29T05:31:26.317Z,18.35
2022-11-29T05:32:34.954Z,16.80
2022-11-29T05:34:00.975Z,21.38
2022-11-29T05:35:27.372Z,16.10
2022-11-29T05:36:31.720Z,19.48
2022-11-29T05:37:38.143Z,18.67
2022-11-29T05:38:49.178Z,19.80
2022-11-29T05:40:22.647Z,21.70
2022-11-29T05:41:46.509Z,21.67
2022-11-29T05:42:55.113Z,19.47
2022-11-29T05:44:27.875Z,19.48
2022-11-29T05:45:34.709Z,16.67
2022-11-29T05:46:50.050Z,17.52
2022-11-29T05:47:55.295Z,18.90
2022-11-29T05:49:24.041Z,18.63
2022-11-29T05:50:57.534Z,17.55
2022-11-29T05:52:17.589Z,16.55
2022-11-29T05:53:25.703Z,17.47
2022-11-29T05:54:32.670Z,17.35
2022-11-29T05:55:55.200Z,17.02
2022-11-29T05:57:18.662Z,15.85
2022-11-29T05:58:47.926Z,17.23
2022-11-29T05:59:49.737Z,17.08
2022-11-29T06:01:15.923Z,17.23
2022-11-29T06:02:26.529Z,17.65
2022-11-29T06:03:39.364Z,18.23
2022-11-29T06:04:40.920Z,16.20
2022-11-29T06:05:56.709Z,16.75
2022-11-29T06:07:07.393Z,17.00
2022-11-29T06:08:43.038Z,16.70
2022-11-29T06:09:50.270Z,15.68
2022-11-29T06:11:02.741Z,14.73
2022-11-29T06:12:14.902Z,16.08
2022-11-29T06:13:35.857Z,15.80
2022-11-29T06:15:17.273Z,15.20
2022-11-29T06:16:24.917Z,14.82
2022-11-29T06:17:53.047Z,15.68
2022-11-29T06:19:03.400Z,16.83
2022-11-29T06:20:26.827Z,15.77
2022-11-29T06:21:45.141Z,15.48
2022-11-29T06:22:52.816Z,16.42
2022-11-29T06:24:00.872Z,15.85
2022-11-29T06:25:07.836Z,17.40
2022-11-29T06:26:29.180Z,16.23
2022-11-29T06:28:02.400Z,16.38
2022-11-29T06:29:25.276Z,16.08
2022-11-29T06:30:29.593Z,16.67
2022-11-29T06:31:43.442Z,17.92
2022-11-29T06:32:56.825Z,16.75
2022-11-29T06:34:10.314Z,16.63
2022-11-29T06:35:39.398Z,18.40
2022-11-29T06:36:56.193Z,16.93
2022-11-29T06:37:57.777Z,16.90
2022-11-29T06:38:59.580Z,17.80
2022-11-29T06:40:01.385Z,18.13
2022-11-29T06:41:03.118Z,16.42
2022-11-29T06:42:04.790Z,18.42
2022-11-29T06:43:06.648Z,17.85
2022-11-29T06:44:09.415Z,18.88
2022-11-29T06:45:12.633Z,20.40
2022-11-29T06:46:26.425Z,17.57
2022-11-29T06:47:49.965Z,18.33
2022-11-29T06:49:33.522Z,17.67
2022-11-29T06:50:43.208Z,16.75
2022-11-29T06:51:50.787Z,17.38
2022-11-29T06:53:27.462Z,17.65
2022-11-29T06:54:42.279Z,17.30
2022-11-29T06:55:49.813Z,16.00
2022-11-29T06:57:17.018Z,18.95
2022-11-29T06:58:35.989Z,17.27
2022-11-29T06:59:57.154Z,16.83
2022-11-29T07:01:07.727Z,17.10
2022-11-29T07:02:36.238Z,16.65
2022-11-29T07:03:56.134Z,16.98
2022-11-29T07:05:14.783Z,16.70
2022-11-29T07:06:25.521Z,18.10
2022-11-29T07:07:27.349Z,17.30
2022-11-29T07:08:29.114Z,17.15
2022-11-29T07:09:33.755Z,16.37
2022-11-29T07:10:37.382Z,16.67
2022-11-29T07:11:39.400Z,17.15
2022-11-29T07:12:41.266Z,29.65
2022-11-29T07:13:43.070Z,18.10
2022-11-29T07:14:45.481Z,17.33
2022-11-29T07:16:08.998Z,17.33
2022-11-29T07:17:37.694Z,16.42
2022-11-29T07:18:44.668Z,16.88
2022-11-29T07:20:04.428Z,15.77
2022-11-29T07:21:20.560Z,17.80
2022-11-29T07:22:34.350Z,17.00
2022-11-29T07:23:36.593Z,23.35
2022-11-29T07:24:56.487Z,27.77
2022-11-29T07:26:00.907Z,28.38
2022-11-29T07:27:15.962Z,20.70
2022-11-29T07:28:30.987Z,21.55
2022-11-29T07:29:35.109Z,25.40
2022-11-29T07:31:10.776Z,23.02
2022-11-29T07:32:34.492Z,17.63
2022-11-29T07:33:51.256Z,22.92
2022-11-29T07:35:03.583Z,19.75
2022-11-29T07:36:16.230Z,18.17
2022-11-29T07:37:26.378Z,19.83
2022-11-29T07:39:01.830Z,17.65
2022-11-29T07:40:11.067Z,18.42
2022-11-29T07:41:20.153Z,18.17
2022-11-29T07:42:30.510Z,17.23
2022-11-29T07:43:41.270Z,14.73
2022-11-29T07:44:58.987Z,16.30
2022-11-29T07:46:00.538Z,15.40
2022-11-29T07:47:02.116Z,15.38
2022-11-29T07:48:04.098Z,16.67
2022-11-29T07:49:06.009Z,16.15
2022-11-29T07:50:08.057Z,15.38
2022-11-29T07:51:09.614Z,15.98
2022-11-29T07:52:12.442Z,15.13
2022-11-29T07:53:17.891Z,16.73
2022-11-29T07:54:19.908Z,17.05
2022-11-29T07:55:22.459Z,16.92
2022-11-29T07:56:24.011Z,16.65
2022-11-29T07:57:25.549Z,18.10
2022-11-29T07:58:27.138Z,18.02
2022-11-29T07:59:28.703Z,16.58
2022-11-29T08:00:30.319Z,17.70
2022-11-29T08:01:31.871Z,18.47
2022-11-29T08:02:33.538Z,17.98
2022-11-29T08:03:35.665Z,17.15
2022-11-29T08:04:42.292Z,18.17
2022-11-29T08:05:46.150Z,18.35
2022-11-29T08:06:47.862Z,17.88
2022-11-29T08:07:49.508Z,16.58
2022-11-29T08:08:51.098Z,18.25
2022-11-29T08:09:52.697Z,19.73
2022-11-29T08:10:54.301Z,18.83
2022-11-29T08:11:55.862Z,18.55
2022-11-29T08:12:57.509Z,19.13
2022-11-29T08:14:03.472Z,16.85
2022-11-29T08:15:05.683Z,15.20
2022-11-29T08:16:07.570Z,17.30
2022-11-29T08:17:09.237Z,16.33
2022-11-29T08:18:10.806Z,16.27
2022-11-29T08:19:12.349Z,17.33
2022-11-29T08:20:14.842Z,17.45
2022-11-29T08:21:18.191Z,17.30
2022-11-29T08:22:19.898Z,18.48
2022-11-29T08:23:21.521Z,15.90
2022-11-29T08:24:23.093Z,17.83
2022-11-29T08:25:25.473Z,16.90
2022-11-29T08:26:31.366Z,18.10
2022-11-29T08:27:34.086Z,17.77
2022-11-29T08:28:35.665Z,16.33
2022-11-29T08:29:37.297Z,17.35
2022-11-29T08:30:38.959Z,16.75
2022-11-29T08:31:40.579Z,17.33
2022-11-29T08:32:44.848Z,17.45
2022-11-29T08:33:50.125Z,17.67
2022-11-29T08:34:51.699Z,18.13
2022-11-29T08:35:53.327Z,17.58
2022-11-29T08:36:55.599Z,18.37
2022-11-29T08:37:57.192Z,17.92
2022-11-29T08:39:05.936Z,18.75
2022-11-29T08:40:10.992Z,17.75
2022-11-29T08:41:14.481Z,18.13
2022-11-29T08:42:16.063Z,16.65
2022-11-29T08:43:17.635Z,19.08
2022-11-29T08:44:19.479Z,18.63
2022-11-29T08:45:21.043Z,17.05
2022-11-29T08:46:22.786Z,17.52
2022-11-29T08:47:36.332Z,16.77
2022-11-29T08:48:37.872Z,17.48
2022-11-29T08:49:59.391Z,17.95
2022-11-29T08:51:01.017Z,18.13
2022-11-29T08:52:41.076Z,18.02
2022-11-29T08:53:42.862Z,17.75
2022-11-29T08:54:44.927Z,19.45
2022-11-29T08:55:46.989Z,17.95
2022-11-29T08:58:11.894Z,20.02
2022-11-29T08:59:13.445Z,17.47
2022-11-29T09:00:15.327Z,17.98
2022-11-29T09:01:17.983Z,18.17
2022-11-29T09:02:19.889Z,18.95
2022-11-29T09:03:40.027Z,18.58
2022-11-29T09:04:41.651Z,18.23
2022-11-29T09:05:43.677Z,19.55
2022-11-29T09:06:45.251Z,19.10
2022-11-29T09:07:47.118Z,17.70
2022-11-29T09:08:48.673Z,18.90
2022-11-29T09:09:50.224Z,17.10
2022-11-29T09:10:51.799Z,17.45
2022-11-29T09:11:53.450Z,17.17
2022-11-29T09:12:55.192Z,16.52
2022-11-29T09:13:58.481Z,17.63
2022-11-29T09:15:00.139Z,16.75
2022-11-29T09:16:07.134Z,17.08
2022-11-29T09:17:08.806Z,17.30
2022-11-29T09:18:10.415Z,17.98
2022-11-29T09:19:13.662Z,17.05
2022-11-29T09:20:15.268Z,17.33
2022-11-29T09:21:16.978Z,16.95
2022-11-29T09:22:18.542Z,17.00
2022-11-29T09:23:20.164Z,16.88
2022-11-29T09:24:21.728Z,16.75
2022-11-29T09:25:23.298Z,17.30
2022-11-29T09:26:27.304Z,17.10
2022-11-29T09:27:28.960Z,16.23
2022-11-29T09:28:30.797Z,16.35
2022-11-29T09:29:32.463Z,17.25
2022-11-29T09:30:36.589Z,17.57
2022-11-29T09:31:38.215Z,16.70
2022-11-29T09:32:39.822Z,17.88
2022-11-29T09:33:41.474Z,17.58
2022-11-29T09:34:43.327Z,17.17
2022-11-29T09:35:45.298Z,18.63
2022-11-29T09:36:47.877Z,17.58
2022-11-29T09:37:49.454Z,16.80
2022-11-29T09:38:51.012Z,17.35
2022-11-29T09:39:52.556Z,16.02
2022-11-29T09:40:55.779Z,18.13
2022-11-29T09:41:57.275Z,17.70
2022-11-29T09:43:17.729Z,17.48
2022-11-29T09:44:31.594Z,17.92
2022-11-29T09:45:37.437Z,17.92
2022-11-29T09:46:45.223Z,18.23
2022-11-29T09:48:02.358Z,16.58
2022-11-29T09:49:07.884Z,18.10
2022-11-29T09:50:36.371Z,18.65
2022-11-29T09:51:55.729Z,19.25
2022-11-29T09:53:20.938Z,18.53
2022-11-29T09:54:36.102Z,17.30
2022-11-29T09:55:56.152Z,18.75
2022-11-29T09:56:57.725Z,19.30
2022-11-29T09:57:59.691Z,17.67
2022-11-29T09:59:12.117Z,19.05
2022-11-29T10:00:18.127Z,16.85
2022-11-29T10:01:23.555Z,17.02
2022-11-29T10:02:59.078Z,19.05
2022-11-29T10:04:02.731Z,15.98
2022-11-29T10:05:10.411Z,18.37
2022-11-29T10:06:24.751Z,17.58
2022-11-29T10:07:37.538Z,17.00
2022-11-29T10:08:45.581Z,16.85
2022-11-29T10:09:52.395Z,16.00
2022-11-29T10:10:57.635Z,16.05
2022-11-29T10:12:36.156Z,16.20
2022-11-29T10:13:40.573Z,15.93
2022-11-29T10:15:09.111Z,16.83
2022-11-29T10:16:19.621Z,26.23
2022-11-29T10:17:34.534Z,16.53
2022-11-29T10:18:48.821Z,14.65
2022-11-29T10:19:51.913Z,16.67
2022-11-29T10:20:54.326Z,16.05
2022-11-29T10:22:02.341Z,17.27
2022-11-29T10:23:36.638Z,16.20
2022-11-29T10:24:38.178Z,16.50
2022-11-29T10:25:44.660Z,15.25
2022-11-29T10:26:46.534Z,16.40
2022-11-29T10:27:48.125Z,18.23
2022-11-29T10:28:49.759Z,17.20
2022-11-29T10:29:51.474Z,20.95
2022-11-29T10:30:54.166Z,20.88
2022-11-29T10:31:56.956Z,25.10
2022-11-29T10:32:59.432Z,24.58
2022-11-29T10:34:02.572Z,22.40
2022-11-29T10:35:06.065Z,19.30
2022-11-29T10:36:23.876Z,19.05
2022-11-29T10:37:25.469Z,18.13
2022-11-29T10:38:31.399Z,16.52
2022-11-29T10:39:45.488Z,17.23
2022-11-29T10:40:48.155Z,17.15
2022-11-29T10:41:51.751Z,16.88
2022-11-29T10:42:53.879Z,18.50
2022-11-29T10:43:58.043Z,21.95
2022-11-29T10:45:00.140Z,22.08
2022-11-29T10:46:02.643Z,19.92
2022-11-29T10:47:09.317Z,19.60
2022-11-29T10:48:23.098Z,17.20
2022-11-29T10:49:26.171Z,18.00
2022-11-29T10:50:29.408Z,16.70
2022-11-29T10:51:31.213Z,16.40
2022-11-29T10:52:32.904Z,17.67
2022-11-29T10:53:37.595Z,17.60
2022-11-29T10:54:41.450Z,17.85
2022-11-29T10:56:07.488Z,17.02
2022-11-29T10:57:16.558Z,17.35
2022-11-29T10:58:28.415Z,17.63
2022-11-29T10:59:30.693Z,17.90
2022-11-29T11:00:32.240Z,18.20
2022-11-29T11:01:43.018Z,17.50
2022-11-29T11:02:44.596Z,17.63
2022-11-29T11:03:55.357Z,16.95
2022-11-29T11:04:57.227Z,18.77
2022-11-29T11:06:00.788Z,17.83
2022-11-29T11:07:03.551Z,17.20
2022-11-29T11:08:05.673Z,17.02
2022-11-29T11:09:31.005Z,17.20
2022-11-29T11:10:32.622Z,16.42
2022-11-29T11:11:34.192Z,17.35
2022-11-29T11:12:37.110Z,18.13
2022-11-29T11:13:39.490Z,17.02
2022-11-29T11:14:41.219Z,17.77
2022-11-29T11:15:42.792Z,16.05
2022-11-29T11:16:44.446Z,17.58
2022-11-29T11:17:56.977Z,19.63
2022-11-29T11:18:58.647Z,42.85
2022-11-29T11:20:05.876Z,35.00
2022-11-29T11:21:11.928Z,32.35
2022-11-29T11:22:20.518Z,25.27
2022-11-29T11:23:38.654Z,21.53
2022-11-29T11:24:43.259Z,18.42
2022-11-29T11:25:45.656Z,24.63
2022-11-29T11:26:47.274Z,20.35
2022-11-29T11:27:48.820Z,17.85
2022-11-29T11:28:58.394Z,20.35
2022-11-29T11:30:00.168Z,20.23
2022-11-29T11:31:03.666Z,20.80
2022-11-29T11:32:05.512Z,19.05
2022-11-29T11:33:25.349Z,17.65
2022-11-29T11:34:36.877Z,18.77
2022-11-29T11:35:38.410Z,18.05
2022-11-29T11:36:40.022Z,17.95
2022-11-29T11:37:41.647Z,16.77
2022-11-29T11:38:53.354Z,17.75
2022-11-29T11:39:59.992Z,21.40
2022-11-29T11:41:16.686Z,17.48
2022-11-29T11:42:39.622Z,20.42
2022-11-29T11:43:41.349Z,19.83
2022-11-29T11:44:49.863Z,17.73
2022-11-29T11:45:52.366Z,17.83
2022-11-29T11:46:54.000Z,16.77
2022-11-29T11:47:58.205Z,17.15
2022-11-29T11:48:59.740Z,17.75
2022-11-29T11:50:04.033Z,16.65
2022-11-29T11:51:05.673Z,17.70
2022-11-29T11:52:07.369Z,18.10
2022-11-29T11:53:19.326Z,16.50
2022-11-29T11:54:20.931Z,18.08
2022-11-29T11:55:25.054Z,21.10
2022-11-29T11:56:27.843Z,19.23
2022-11-29T11:57:29.458Z,17.88
2022-11-29T11:58:44.033Z,18.83
2022-11-29T11:59:49.811Z,16.90
2022-11-29T12:01:13.380Z,17.10
2022-11-29T12:02:26.425Z,17.00
2022-11-29T12:03:46.600Z,17.60
2022-11-29T12:04:48.173Z,16.40
2022-11-29T12:05:49.991Z,17.27
2022-11-29T12:06:53.401Z,16.63
2022-11-29T12:08:13.632Z,17.43
2022-11-29T12:09:19.500Z,17.25
2022-11-29T12:10:24.640Z,16.10
2022-11-29T12:11:26.273Z,15.93
2022-11-29T12:12:32.870Z,15.68
2022-11-29T12:13:35.835Z,16.70
2022-11-29T12:14:59.515Z,15.70
2022-11-29T12:16:04.107Z,14.55
2022-11-29T12:17:19.652Z,15.65
2022-11-29T12:18:33.703Z,14.68
2022-11-29T12:19:40.998Z,14.53
2022-11-29T12:20:46.817Z,15.98
2022-11-29T12:21:52.601Z,14.27
2022-11-29T12:22:54.089Z,15.90
2022-11-29T12:24:28.864Z,15.40
2022-11-29T12:25:33.437Z,15.57
2022-11-29T12:28:00.740Z,15.77
2022-11-29T12:29:02.403Z,14.88
2022-11-29T12:30:11.817Z,15.18
2022-11-29T12:31:22.137Z,15.63
2022-11-29T12:32:30.110Z,19.08
2022-11-29T12:33:49.121Z,17.23
2022-11-29T12:35:18.604Z,17.08
2022-11-29T12:36:26.596Z,17.58
2022-11-29T12:37:45.598Z,16.67
2022-11-29T12:38:56.162Z,17.23
2022-11-29T12:40:27.478Z,16.77
2022-11-29T12:41:54.042Z,16.05
2022-11-29T12:43:13.003Z,15.80
2022-11-29T12:44:37.857Z,16.30
2022-11-29T12:45:49.636Z,15.75
2022-11-29T12:47:34.117Z,15.95
2022-11-29T12:48:30.681Z,15.18
2022-11-29T12:49:43.576Z,14.27
2022-11-29T12:51:20.235Z,17.95
2022-11-29T12:52:44.759Z,15.27
2022-11-29T12:53:53.935Z,14.15
2022-11-29T12:55:16.847Z,15.38
2022-11-29T12:56:33.495Z,16.55
2022-11-29T12:57:43.638Z,15.33
2022-11-29T12:59:14.168Z,32.17
2022-11-29T13:00:16.754Z,18.10
2022-11-29T13:01:30.329Z,16.50
2022-11-29T13:02:37.922Z,18.88
2022-11-29T13:03:49.597Z,23.40
2022-11-29T13:05:09.637Z,25.15
2022-11-29T13:06:39.113Z,20.30
2022-11-29T13:08:02.886Z,16.17
2022-11-29T13:09:04.525Z,17.70
2022-11-29T13:10:25.581Z,16.90
2022-11-29T13:11:32.185Z,16.52
2022-11-29T13:12:41.797Z,18.15
2022-11-29T13:13:53.274Z,17.27
2022-11-29T13:15:03.936Z,16.92
2022-11-29T13:17:54.822Z,16.45
2022-11-29T13:19:05.690Z,17.42
2022-11-29T13:20:30.836Z,17.65
2022-11-29T13:21:39.315Z,17.48
2022-11-29T13:22:50.229Z,16.93
2022-11-29T13:24:10.183Z,17.10
2022-11-29T13:25:26.007Z,17.05
2022-11-29T13:26:28.008Z,15.93
2022-11-29T13:27:38.464Z,16.60
2022-11-29T13:28:41.294Z,16.52
2022-11-29T13:29:42.866Z,17.77
2022-11-29T13:30:44.486Z,17.08
2022-11-29T13:31:46.371Z,18.30
2022-11-29T13:32:51.315Z,16.95
2022-11-29T13:34:24.153Z,17.17
2022-11-29T13:35:46.908Z,17.30
2022-11-29T13:36:59.780Z,16.80
2022-11-29T13:38:07.928Z,17.08
2022-11-29T13:39:33.558Z,18.60
2022-11-29T13:40:38.660Z,19.60
2022-11-29T13:41:48.423Z,17.27
2022-11-29T13:43:01.737Z,18.80
2022-11-29T13:44:21.639Z,19.60
2022-11-29T13:45:51.258Z,19.48
2022-11-29T13:47:06.855Z,17.33
2022-11-29T13:48:48.400Z,18.63
2022-11-29T13:49:53.041Z,17.08
2022-11-29T13:50:55.811Z,18.15
2022-11-29T13:52:04.658Z,19.55
2022-11-29T13:53:13.572Z,20.98
2022-11-29T13:54:26.989Z,21.15
2022-11-29T13:55:31.664Z,19.63
2022-11-29T13:56:46.611Z,20.35
2022-11-29T13:58:15.094Z,22.27
2022-11-29T13:59:22.996Z,27.57
2022-11-29T14:00:27.478Z,21.25
2022-11-29T14:01:29.130Z,20.35
2022-11-29T14:02:31.173Z,19.75
2022-11-29T14:03:45.481Z,19.15
2022-11-29T14:04:47.244Z,18.95
2022-11-29T14:06:21.137Z,19.00
2022-11-29T14:07:23.044Z,27.55
2022-11-29T14:09:02.037Z,22.98
2022-11-29T14:10:06.082Z,23.13
2022-11-29T14:11:13.459Z,20.03
2022-11-29T14:12:28.989Z,20.15
2022-11-29T14:13:37.713Z,23.13
2022-11-29T14:14:49.354Z,23.35
2022-11-29T14:15:55.303Z,26.00
2022-11-29T14:17:04.811Z,23.65
2022-11-29T14:18:08.914Z,22.40
2022-11-29T14:19:10.454Z,21.00
2022-11-29T14:20:25.008Z,21.25
2022-11-29T14:21:26.560Z,19.52
2022-11-29T14:22:28.138Z,19.37
2022-11-29T14:23:35.567Z,20.45
2022-11-29T14:24:37.301Z,20.80
2022-11-29T14:25:51.813Z,22.70
2022-11-29T14:26:53.912Z,20.40
2022-11-29T14:27:56.895Z,21.23
2022-11-29T14:28:58.619Z,20.17
2022-11-29T14:30:00.331Z,20.27
2022-11-29T14:31:02.692Z,20.48
2022-11-29T14:32:04.352Z,22.38
2022-11-29T14:33:18.145Z,26.37
2022-11-29T14:34:23.437Z,21.58
2022-11-29T14:36:14.055Z,21.27
2022-11-29T14:37:53.360Z,21.20
2022-11-29T14:39:15.831Z,20.40
2022-11-29T14:40:42.067Z,19.23
2022-11-29T14:41:55.763Z,19.40
2022-11-29T14:42:57.350Z,20.63
2022-11-29T14:44:17.993Z,20.95
2022-11-29T14:45:37.791Z,24.52
2022-11-29T14:46:39.503Z,22.00
2022-11-29T14:47:48.021Z,24.45
2022-11-29T14:48:55.566Z,26.63
2022-11-29T14:49:57.766Z,22.65
2022-11-29T14:51:14.959Z,23.13
2022-11-29T14:52:19.070Z,23.50
2022-11-29T14:53:33.845Z,25.30
2022-11-29T14:54:35.627Z,25.25
2022-11-29T14:55:37.646Z,25.80
2022-11-29T14:56:43.801Z,23.83
2022-11-29T14:57:48.080Z,23.03
2022-11-29T14:59:27.996Z,23.50
2022-11-29T15:00:32.721Z,21.85
2022-11-29T15:01:34.336Z,23.35
2022-11-29T15:02:39.908Z,22.77
2022-11-29T15:03:48.206Z,22.35
2022-11-29T15:04:50.968Z,23.45
2022-11-29T15:06:06.320Z,23.33
2022-11-29T15:07:13.182Z,23.70